Time;durP1;ratioP1;P1;durP2;ratioP2;P2;SDS_P1;SDS_P2;PMS_P1;PMS_P2;Temp;Humidity;BMP_temperature;BMP_pressure;BME280_temperature;BME280_humidity;BME280_pressure;Samples;Min_cycle;Max_cycle;Signal;HPM_P1;HPM_P2
2023/02/20 00:00:20;;;;;;;10.02;5.70;;;;;;;;;;5032258;28;20040;-82
2023/02/20 00:02:47;;;;;;;9.98;5.25;;;;;;;;;;5031156;28;20022;-82
2023/02/20 00:05:13;;;;;;;10.90;5.47;;;;;;;;;;5032508;28;20064;-82
2023/02/20 00:07:38;;;;;;;8.93;5.35;;;;;;;;;;5032368;28;20021;-82
2023/02/20 00:10:04;;;;;;;7.95;5.03;;;;;;;;;;5029698;28;20078;-82
2023/02/20 00:12:31;;;;;;;9.18;4.88;;;;;;;;;;5032380;28;20025;-82
2023/02/20 00:14:57;;;;;;;8.40;4.07;;;;;;;;;;5030122;28;20021;-82
2023/02/20 00:17:22;;;;;;;9.32;5.35;;;;;;;;;;5034884;28;20033;-83
2023/02/20 00:19:48;;;;;;;9.38;4.93;;;;;;;;;;5033276;28;20017;-82
2023/02/20 00:22:13;;;;;;;9.35;4.80;;;;;;;;;;5035176;28;20435;-82
2023/02/20 00:24:38;;;;;;;7.63;4.78;;;;;;;;;;5035729;28;20032;-83
2023/02/20 00:27:04;;;;;;;10.55;5.25;;;;;;;;;;5034718;28;20386;-80
2023/02/20 00:29:29;;;;;;;8.70;5.13;;;;;;;;;;5034787;28;20047;-80
2023/02/20 00:31:56;;;;;;;8.57;5.00;;;;;;;;;;5036566;28;20029;-80
2023/02/20 00:34:25;;;;;;;10.30;5.70;;;;;;;;;;5036600;28;20028;-80
2023/02/20 00:36:51;;;;;;;9.23;5.47;;;;;;;;;;5033992;28;20550;-80
2023/02/20 00:39:16;;;;;;;13.45;6.05;;;;;;;;;;5027741;28;20113;-82
2023/02/20 00:41:42;;;;;;;6.97;4.47;;;;;;;;;;5014733;28;20116;-82
2023/02/20 00:44:07;;;;;;;8.30;5.05;;;;;;;;;;5035846;28;20079;-82
2023/02/20 00:46:32;;;;;;;11.55;5.63;;;;;;;;;;5036975;28;20467;-83
2023/02/20 00:48:58;;;;;;;10.88;5.70;;;;;;;;;;5032931;28;20029;-80
2023/02/20 00:51:23;;;;;;;8.63;4.80;;;;;;;;;;5035786;28;20121;-80
2023/02/20 00:53:49;;;;;;;11.52;6.13;;;;;;;;;;5039984;28;20083;-80
2023/02/20 00:56:14;;;;;;;10.38;5.22;;;;;;;;;;5034587;28;20018;-80
2023/02/20 00:58:40;;;;;;;9.43;5.47;;;;;;;;;;5035433;28;20022;-80
2023/02/20 01:01:05;;;;;;;10.75;5.88;;;;;;;;;;5035405;28;20544;-80
2023/02/20 01:03:31;;;;;;;9.73;5.45;;;;;;;;;;5034273;28;20163;-80
2023/02/20 01:05:56;;;;;;;9.80;5.75;;;;;;;;;;5031679;28;20029;-83
2023/02/20 01:08:22;;;;;;;9.77;5.63;;;;;;;;;;5031147;28;20140;-82
2023/02/20 01:10:47;;;;;;;8.57;4.88;;;;;;;;;;5025908;28;20371;-82
2023/02/20 01:13:12;;;;;;;11.70;5.90;;;;;;;;;;5033811;28;20017;-82
2023/02/20 01:15:38;;;;;;;9.88;5.53;;;;;;;;;;5034120;28;20056;-83
2023/02/20 01:18:04;;;;;;;11.02;5.90;;;;;;;;;;5033735;28;20032;-82
2023/02/20 01:20:30;;;;;;;9.93;6.07;;;;;;;;;;5034964;28;20079;-82
2023/02/20 01:22:56;;;;;;;10.35;5.80;;;;;;;;;;5033747;28;20032;-82
2023/02/20 01:25:21;;;;;;;9.48;5.50;;;;;;;;;;5028409;28;20029;-82
2023/02/20 01:27:47;;;;;;;10.98;5.72;;;;;;;;;;5032832;28;20064;-83
2023/02/20 01:30:13;;;;;;;10.73;5.78;;;;;;;;;;5031472;28;20045;-82
2023/02/20 01:32:38;;;;;;;11.32;5.65;;;;;;;;;;5028123;28;20048;-82
2023/02/20 01:35:04;;;;;;;11.48;6.05;;;;;;;;;;5031990;28;20393;-82
2023/02/20 01:37:30;;;;;;;11.55;6.22;;;;;;;;;;5034143;28;20478;-83
2023/02/20 01:39:55;;;;;;;11.18;6.40;;;;;;;;;;5031005;28;20072;-82
2023/02/20 01:42:24;;;;;;;12.13;5.82;;;;;;;;;;5029736;28;20025;-83
2023/02/20 01:44:49;;;;;;;10.27;6.05;;;;;;;;;;5033589;28;20040;-80
2023/02/20 01:47:18;;;;;;;11.68;5.95;;;;;;;;;;5034422;28;20401;-82
2023/02/20 01:49:55;;;;;;;10.63;6.00;;;;;;;;;;5033476;28;20541;-83
2023/02/20 01:52:37;;;;;;;11.82;6.30;;;;;;;;;;5033213;28;20394;-82
2023/02/20 01:55:16;;;;;;;10.27;6.10;;;;;;;;;;5024081;28;20025;-82
2023/02/20 01:57:49;;;;;;;11.38;6.03;;;;;;;;;;5023966;28;20054;-82
2023/02/20 02:00:18;;;;;;;10.18;5.95;;;;;;;;;;5033580;28;20437;-83
2023/02/20 02:02:52;;;;;;;11.90;6.68;;;;;;;;;;5026235;28;20029;-82
2023/02/20 02:05:19;;;;;;;10.38;6.07;;;;;;;;;;5042541;28;20029;-82
2023/02/20 02:07:45;;;;;;;11.43;6.43;;;;;;;;;;5033056;28;20028;-83
2023/02/20 02:10:15;;;;;;;13.77;6.70;;;;;;;;;;5034055;28;20393;-82
2023/02/20 02:12:44;;;;;;;12.90;7.05;;;;;;;;;;5033871;28;20040;-82
2023/02/20 02:15:18;;;;;;;10.43;5.88;;;;;;;;;;5034344;28;20057;-82
2023/02/20 02:18:21;;;;;;;12.75;6.25;;;;;;;;;;5032190;28;20040;-82
2023/02/20 02:21:02;;;;;;;10.82;6.32;;;;;;;;;;5027705;28;20060;-82
2023/02/20 02:23:33;;;;;;;13.00;6.63;;;;;;;;;;5033296;28;20013;-82
2023/02/20 02:26:24;;;;;;;10.90;6.75;;;;;;;;;;5019743;28;20390;-82
2023/02/20 02:29:09;;;;;;;12.95;6.53;;;;;;;;;;5026544;28;20498;-82
2023/02/20 02:32:25;;;;;;;11.35;6.30;;;;;;;;;;5040246;28;20440;-82
2023/02/20 02:35:08;;;;;;;14.10;6.82;;;;;;;;;;5032476;28;20041;-82
2023/02/20 02:37:55;;;;;;;14.77;6.93;;;;;;;;;;5028070;28;20036;-81
2023/02/20 02:40:26;;;;;;;13.63;6.85;;;;;;;;;;5025711;28;20036;-82
2023/02/20 02:43:36;;;;;;;15.63;7.72;;;;;;;;;;5029978;28;20030;-82
2023/02/20 02:46:33;;;;;;;10.73;6.55;;;;;;;;;;5033393;28;20030;-82
2023/02/20 02:49:05;;;;;;;13.45;7.30;;;;;;;;;;5026292;28;20469;-82
2023/02/20 02:51:36;;;;;;;12.60;7.20;;;;;;;;;;5032290;28;20053;-82
2023/02/20 02:54:07;;;;;;;14.10;7.63;;;;;;;;;;5029427;28;20026;-82
2023/02/20 02:56:37;;;;;;;15.90;7.68;;;;;;;;;;5033876;28;20028;-82
2023/02/20 02:59:06;;;;;;;16.80;8.20;;;;;;;;;;5033398;28;20024;-80
2023/02/20 03:01:36;;;;;;;14.18;7.97;;;;;;;;;;5033264;28;20025;-80
2023/02/20 03:04:05;;;;;;;15.68;9.13;;;;;;;;;;5031555;28;20033;-80
2023/02/20 03:06:35;;;;;;;21.08;9.27;;;;;;;;;;5029324;28;20036;-80
2023/02/20 03:09:09;;;;;;;16.75;8.52;;;;;;;;;;5026505;28;20030;-80
2023/02/20 03:11:36;;;;;;;18.10;8.65;;;;;;;;;;5032917;28;20021;-79
2023/02/20 03:17:28;;;;;;;19.85;10.32;;;;;;;;;;5031771;28;20037;-80
2023/02/20 03:19:59;;;;;;;16.45;9.18;;;;;;;;;;5029183;28;20481;-80
2023/02/20 03:22:34;;;;;;;17.48;9.25;;;;;;;;;;5028864;28;20505;-79
2023/02/20 03:25:07;;;;;;;19.25;10.77;;;;;;;;;;5030759;28;20018;-79
2023/02/20 03:27:57;;;;;;;21.85;11.13;;;;;;;;;;5032993;28;20096;-80
2023/02/20 03:30:28;;;;;;;23.90;11.50;;;;;;;;;;5032826;28;20030;-80
2023/02/20 03:44:07;;;;;;;23.73;14.15;;;;;;;;;;5028334;28;20393;-82
2023/02/20 03:46:36;;;;;;;26.58;13.73;;;;;;;;;;5032643;28;20018;-82
2023/02/20 03:49:07;;;;;;;24.50;13.38;;;;;;;;;;5029237;28;20086;-82
2023/02/20 03:51:33;;;;;;;24.42;13.90;;;;;;;;;;5032283;28;20045;-83
2023/02/20 03:53:59;;;;;;;26.15;13.65;;;;;;;;;;5032595;28;20476;-82
2023/02/20 03:56:30;;;;;;;25.80;14.20;;;;;;;;;;5030600;28;20454;-82
2023/02/20 03:59:13;;;;;;;26.08;13.65;;;;;;;;;;5032316;28;20022;-82
2023/02/20 04:01:42;;;;;;;26.25;14.38;;;;;;;;;;5023971;28;20132;-82
2023/02/20 04:04:13;;;;;;;25.67;15.05;;;;;;;;;;5025166;28;20087;-82
2023/02/20 04:06:40;;;;;;;27.63;14.93;;;;;;;;;;5030807;28;20103;-82
2023/02/20 04:09:10;;;;;;;27.10;14.57;;;;;;;;;;5032464;28;20025;-82
2023/02/20 04:11:42;;;;;;;21.67;13.98;;;;;;;;;;5032453;28;20546;-82
2023/02/20 04:14:08;;;;;;;28.52;15.27;;;;;;;;;;5027035;28;20021;-83
2023/02/20 04:16:40;;;;;;;26.23;14.90;;;;;;;;;;5031093;28;20030;-82
2023/02/20 04:19:06;;;;;;;24.15;13.45;;;;;;;;;;5032267;28;20025;-82
2023/02/20 04:21:40;;;;;;;24.25;14.25;;;;;;;;;;5028919;28;20017;-82
2023/02/20 04:24:09;;;;;;;26.88;14.55;;;;;;;;;;5030234;28;20025;-82
2023/02/20 04:26:35;;;;;;;26.95;14.50;;;;;;;;;;5036708;28;20390;-82
2023/02/20 04:29:01;;;;;;;25.30;14.45;;;;;;;;;;5030557;28;20036;-82
2023/02/20 04:31:27;;;;;;;27.45;14.05;;;;;;;;;;5030383;28;20025;-82
2023/02/20 04:33:52;;;;;;;28.98;14.70;;;;;;;;;;5031139;28;20052;-82
2023/02/20 04:36:18;;;;;;;29.73;14.82;;;;;;;;;;5031240;28;20048;-82
2023/02/20 04:38:43;;;;;;;23.77;13.85;;;;;;;;;;5032037;28;20116;-82
2023/02/20 04:41:08;;;;;;;26.30;13.85;;;;;;;;;;5024550;28;20059;-82
2023/02/20 04:43:34;;;;;;;26.10;13.38;;;;;;;;;;5020745;28;20032;-82
2023/02/20 04:45:59;;;;;;;27.98;14.30;;;;;;;;;;5030640;28;20017;-82
2023/02/20 04:48:25;;;;;;;26.98;14.48;;;;;;;;;;5027935;28;20436;-82
2023/02/20 04:50:50;;;;;;;24.25;13.88;;;;;;;;;;5030917;28;20025;-82
2023/02/20 04:53:15;;;;;;;21.83;13.68;;;;;;;;;;5030888;28;20029;-82
2023/02/20 04:55:41;;;;;;;22.52;13.82;;;;;;;;;;5032380;28;20124;-82
2023/02/20 04:58:07;;;;;;;23.65;14.40;;;;;;;;;;5031727;28;20105;-82
2023/02/20 05:00:32;;;;;;;27.98;14.50;;;;;;;;;;5030040;28;20092;-82
2023/02/20 05:02:57;;;;;;;24.20;13.40;;;;;;;;;;5031785;28;20452;-82
2023/02/20 05:05:28;;;;;;;25.17;13.32;;;;;;;;;;5022338;28;20482;-82
2023/02/20 05:08:02;;;;;;;25.23;12.95;;;;;;;;;;5033986;28;20032;-82
2023/02/20 05:10:29;;;;;;;23.60;12.52;;;;;;;;;;5034708;28;20060;-82
2023/02/20 05:12:56;;;;;;;22.85;12.13;;;;;;;;;;5033921;28;20535;-82
2023/02/20 05:15:22;;;;;;;19.63;11.68;;;;;;;;;;5035288;28;20029;-82
2023/02/20 05:17:48;;;;;;;21.38;11.43;;;;;;;;;;5029679;28;20171;-82
2023/02/20 05:20:15;;;;;;;19.27;11.32;;;;;;;;;;5034852;28;20029;-82
2023/02/20 05:22:40;;;;;;;18.15;10.63;;;;;;;;;;5030222;28;20025;-82
2023/02/20 05:25:06;;;;;;;19.17;10.25;;;;;;;;;;5034014;28;20132;-82
2023/02/20 05:27:31;;;;;;;19.98;10.50;;;;;;;;;;5038887;28;20017;-82
2023/02/20 05:29:59;;;;;;;18.75;9.85;;;;;;;;;;5034745;28;20025;-82
2023/02/20 05:32:27;;;;;;;19.58;9.52;;;;;;;;;;5035119;28;20013;-82
2023/02/20 05:34:53;;;;;;;18.63;9.88;;;;;;;;;;5025175;28;20112;-82
2023/02/20 05:37:19;;;;;;;20.67;9.70;;;;;;;;;;5032890;28;20144;-81
2023/02/20 05:39:46;;;;;;;20.23;9.13;;;;;;;;;;5033720;28;20048;-82
2023/02/20 05:42:11;;;;;;;21.25;9.95;;;;;;;;;;5036080;28;20120;-82
2023/02/20 05:44:37;;;;;;;18.08;9.65;;;;;;;;;;5034903;28;20068;-82
2023/02/20 05:47:03;;;;;;;20.63;10.10;;;;;;;;;;5034746;28;20013;-82
2023/02/20 05:49:29;;;;;;;18.58;9.40;;;;;;;;;;5033774;28;20029;-82
2023/02/20 05:51:56;;;;;;;18.40;9.82;;;;;;;;;;5034612;28;20474;-82
2023/02/20 05:54:22;;;;;;;19.27;9.43;;;;;;;;;;5033243;28;20091;-81
2023/02/20 05:56:47;;;;;;;22.05;10.07;;;;;;;;;;5031834;28;20394;-82
2023/02/20 05:59:16;;;;;;;22.45;10.02;;;;;;;;;;5016680;28;20531;-82
2023/02/20 06:01:42;;;;;;;17.45;8.90;;;;;;;;;;5034649;28;20036;-82
2023/02/20 06:04:07;;;;;;;19.40;9.65;;;;;;;;;;5034288;28;20018;-82
2023/02/20 06:06:41;;;;;;;23.08;9.98;;;;;;;;;;5033065;28;20064;-82
2023/02/20 06:09:11;;;;;;;16.90;9.13;;;;;;;;;;5011125;28;20033;-82
2023/02/20 06:11:38;;;;;;;20.48;8.95;;;;;;;;;;5031794;28;20090;-82
2023/02/20 06:14:05;;;;;;;19.38;9.10;;;;;;;;;;5027396;28;20034;-82
2023/02/20 06:16:30;;;;;;;17.50;8.55;;;;;;;;;;5032690;28;20021;-82
2023/02/20 06:18:58;;;;;;;18.60;9.00;;;;;;;;;;5033522;28;20389;-82
2023/02/20 06:21:24;;;;;;;18.52;9.13;;;;;;;;;;5030306;28;20026;-82
2023/02/20 06:23:51;;;;;;;19.70;8.70;;;;;;;;;;5033864;28;20021;-82
2023/02/20 06:26:17;;;;;;;19.40;8.27;;;;;;;;;;5041142;28;20033;-82
2023/02/20 06:28:43;;;;;;;19.67;8.13;;;;;;;;;;5027076;28;20030;-82
2023/02/20 06:31:09;;;;;;;16.75;8.32;;;;;;;;;;5028518;28;20112;-82
2023/02/20 06:33:35;;;;;;;24.85;8.93;;;;;;;;;;5034034;28;20519;-82
2023/02/20 06:36:01;;;;;;;18.27;8.93;;;;;;;;;;5032820;28;20025;-82
2023/02/20 06:38:27;;;;;;;19.25;8.90;;;;;;;;;;5032521;28;20026;-82
2023/02/20 06:40:52;;;;;;;16.83;8.90;;;;;;;;;;5037147;28;20042;-82
2023/02/20 06:43:18;;;;;;;19.95;8.50;;;;;;;;;;5032526;28;20091;-82
2023/02/20 06:45:44;;;;;;;19.67;9.35;;;;;;;;;;5031368;28;20090;-82
2023/02/20 06:48:09;;;;;;;17.45;9.10;;;;;;;;;;5029663;28;20021;-82
2023/02/20 06:50:34;;;;;;;18.27;8.40;;;;;;;;;;5032290;28;20116;-82
2023/02/20 06:53:00;;;;;;;18.98;9.25;;;;;;;;;;5029796;28;20114;-82
2023/02/20 06:55:26;;;;;;;18.10;8.60;;;;;;;;;;5033576;28;20030;-82
2023/02/20 06:57:51;;;;;;;20.48;9.50;;;;;;;;;;5032025;28;20029;-82
2023/02/20 07:00:18;;;;;;;18.35;8.93;;;;;;;;;;5034010;28;20025;-82
2023/02/20 07:02:43;;;;;;;20.17;9.13;;;;;;;;;;5026332;28;20091;-82
2023/02/20 07:05:10;;;;;;;16.17;8.95;;;;;;;;;;5028205;28;20021;-82
2023/02/20 07:07:35;;;;;;;20.45;9.38;;;;;;;;;;5032017;28;20509;-82
2023/02/20 07:10:01;;;;;;;18.15;9.27;;;;;;;;;;5028411;28;20081;-82
2023/02/20 07:12:33;;;;;;;21.48;9.05;;;;;;;;;;5029942;28;20029;-83
2023/02/20 07:14:58;;;;;;;22.77;10.15;;;;;;;;;;5034087;28;20366;-82
2023/02/20 07:17:24;;;;;;;17.40;9.18;;;;;;;;;;5033336;28;20036;-83
2023/02/20 07:19:50;;;;;;;18.77;9.27;;;;;;;;;;5029899;28;20422;-82
2023/02/20 07:22:16;;;;;;;21.23;10.05;;;;;;;;;;5024366;28;20033;-82
2023/02/20 07:24:41;;;;;;;15.48;8.60;;;;;;;;;;5031649;28;20025;-82
2023/02/20 07:27:09;;;;;;;24.05;10.38;;;;;;;;;;5032404;28;20017;-81
2023/02/20 07:29:35;;;;;;;22.38;9.50;;;;;;;;;;5030085;28;20028;-81
2023/02/20 07:32:01;;;;;;;20.88;9.75;;;;;;;;;;5032789;28;20040;-82
2023/02/20 07:34:26;;;;;;;19.23;9.10;;;;;;;;;;5033815;28;20480;-82
2023/02/20 07:36:52;;;;;;;20.83;9.35;;;;;;;;;;5032566;28;20029;-83
2023/02/20 07:39:17;;;;;;;21.15;9.88;;;;;;;;;;5031478;28;20108;-83
2023/02/20 07:41:42;;;;;;;19.30;9.93;;;;;;;;;;5031618;28;20025;-83
2023/02/20 07:44:08;;;;;;;19.83;10.43;;;;;;;;;;5032742;28;20042;-83
2023/02/20 07:46:34;;;;;;;18.75;9.48;;;;;;;;;;5032877;28;20124;-83
2023/02/20 07:49:04;;;;;;;19.40;10.30;;;;;;;;;;5033280;28;20489;-82
2023/02/20 07:51:29;;;;;;;20.45;9.60;;;;;;;;;;5030253;28;20545;-82
2023/02/20 07:53:55;;;;;;;18.30;9.63;;;;;;;;;;5019315;28;20121;-82
2023/02/20 07:56:21;;;;;;;20.08;9.88;;;;;;;;;;5025573;28;20104;-82
2023/02/20 07:58:47;;;;;;;21.17;9.52;;;;;;;;;;5029653;28;20081;-82
2023/02/20 08:01:13;;;;;;;19.73;9.75;;;;;;;;;;5032470;28;20100;-83
2023/02/20 08:03:39;;;;;;;18.17;9.98;;;;;;;;;;5032622;28;20108;-83
2023/02/20 08:06:04;;;;;;;18.58;10.10;;;;;;;;;;5032339;28;20105;-83
2023/02/20 08:08:30;;;;;;;18.52;9.60;;;;;;;;;;5030049;28;20079;-83
2023/02/20 08:10:56;;;;;;;21.95;10.98;;;;;;;;;;5027903;28;20095;-83
2023/02/20 08:13:22;;;;;;;17.27;9.18;;;;;;;;;;5027812;28;20061;-82
2023/02/20 08:15:47;;;;;;;20.23;8.93;;;;;;;;;;5032498;28;20036;-82
2023/02/20 08:18:14;;;;;;;19.23;9.98;;;;;;;;;;5030177;28;20419;-83
2023/02/20 08:20:40;;;;;;;21.05;10.60;;;;;;;;;;5028538;28;20056;-83
2023/02/20 08:23:15;;;;;;;18.95;9.45;;;;;;;;;;5025322;28;20033;-82
2023/02/20 08:25:40;;;;;;;19.92;9.48;;;;;;;;;;5026660;28;20021;-82
2023/02/20 08:28:05;;;;;;;17.40;9.38;;;;;;;;;;5027335;28;20105;-83
2023/02/20 08:30:31;;;;;;;17.38;8.68;;;;;;;;;;5032229;28;20550;-83
2023/02/20 08:32:56;;;;;;;19.73;8.77;;;;;;;;;;5032538;28;20087;-82
2023/02/20 08:35:23;;;;;;;14.70;8.40;;;;;;;;;;5035777;28;20405;-82
2023/02/20 08:37:49;;;;;;;15.40;8.40;;;;;;;;;;5033238;28;20021;-82
2023/02/20 08:40:14;;;;;;;15.32;7.70;;;;;;;;;;5035736;28;20376;-82
2023/02/20 08:42:40;;;;;;;17.77;8.73;;;;;;;;;;5045649;28;20123;-82
2023/02/20 08:45:07;;;;;;;14.73;8.15;;;;;;;;;;5036090;28;20389;-81
2023/02/20 08:47:33;;;;;;;14.77;8.35;;;;;;;;;;5036065;28;20380;-82
2023/02/20 08:49:58;;;;;;;17.05;8.70;;;;;;;;;;5033866;28;20121;-81
2023/02/20 08:52:24;;;;;;;16.55;8.02;;;;;;;;;;5035998;28;20057;-83
2023/02/20 08:54:49;;;;;;;18.38;8.32;;;;;;;;;;5035738;28;20025;-83
2023/02/20 08:57:16;;;;;;;18.55;8.55;;;;;;;;;;5034418;28;20060;-82
2023/02/20 08:59:41;;;;;;;16.02;9.02;;;;;;;;;;5035521;28;20025;-83
2023/02/20 09:02:15;;;;;;;15.57;8.05;;;;;;;;;;5033322;28;20071;-83
2023/02/20 09:04:45;;;;;;;17.88;8.23;;;;;;;;;;5032005;28;20025;-82
2023/02/20 09:07:11;;;;;;;17.08;8.77;;;;;;;;;;5031819;28;20115;-82
2023/02/20 09:09:37;;;;;;;18.77;7.78;;;;;;;;;;5034326;28;20025;-82
2023/02/20 09:12:02;;;;;;;15.32;7.93;;;;;;;;;;5035556;28;20025;-82
2023/02/20 09:14:28;;;;;;;19.17;9.20;;;;;;;;;;5034328;28;20116;-83
2023/02/20 09:16:53;;;;;;;16.30;7.90;;;;;;;;;;5035177;28;20022;-83
2023/02/20 09:19:20;;;;;;;16.52;8.88;;;;;;;;;;5032811;28;20052;-83
2023/02/20 09:21:46;;;;;;;16.92;8.50;;;;;;;;;;5035530;28;20108;-83
2023/02/20 09:24:12;;;;;;;15.30;8.00;;;;;;;;;;5034192;28;20488;-82
2023/02/20 09:26:37;;;;;;;16.92;8.27;;;;;;;;;;5035579;28;20021;-83
2023/02/20 09:29:03;;;;;;;17.67;8.30;;;;;;;;;;5034176;28;20026;-83
2023/02/20 09:31:28;;;;;;;18.98;9.63;;;;;;;;;;5035138;28;20037;-83
2023/02/20 09:33:53;;;;;;;20.40;9.48;;;;;;;;;;5038961;28;20366;-82
2023/02/20 09:36:19;;;;;;;18.20;9.60;;;;;;;;;;5034442;28;20019;-83
2023/02/20 09:38:44;;;;;;;20.58;8.88;;;;;;;;;;5033711;28;20026;-83
2023/02/20 09:41:51;;;;;;;18.58;9.05;;;;;;;;;;5036387;28;20079;-82
2023/02/20 09:44:25;;;;;;;19.55;9.10;;;;;;;;;;5033812;28;20040;-83
2023/02/20 09:46:52;;;;;;;17.63;8.80;;;;;;;;;;5033805;28;20114;-83
2023/02/20 09:49:25;;;;;;;18.17;8.93;;;;;;;;;;5023334;28;20071;-82
2023/02/20 09:51:55;;;;;;;18.02;8.68;;;;;;;;;;5023046;28;20025;-82
2023/02/20 09:54:35;;;;;;;17.52;8.65;;;;;;;;;;5029838;28;20481;-82
2023/02/20 09:57:08;;;;;;;14.93;9.23;;;;;;;;;;5034034;28;20075;-82
2023/02/20 10:00:17;;;;;;;19.42;9.25;;;;;;;;;;5017683;28;20056;-83
2023/02/20 10:02:55;;;;;;;15.93;8.15;;;;;;;;;;5023968;28;20076;-83
2023/02/20 10:05:25;;;;;;;20.30;8.88;;;;;;;;;;5029283;28;20060;-83
2023/02/20 10:07:51;;;;;;;20.83;8.85;;;;;;;;;;5034306;28;20393;-85
2023/02/20 10:10:27;;;;;;;16.85;8.65;;;;;;;;;;5033795;28;20504;-82
2023/02/20 10:13:20;;;;;;;16.50;8.65;;;;;;;;;;5034574;28;20032;-83
2023/02/20 10:16:17;;;;;;;16.65;8.00;;;;;;;;;;5033898;28;20055;-83
2023/02/20 10:18:44;;;;;;;14.73;7.75;;;;;;;;;;5028080;28;20521;-82
2023/02/20 10:21:09;;;;;;;14.45;7.60;;;;;;;;;;5033576;28;20030;-82
2023/02/20 10:23:48;;;;;;;13.65;7.10;;;;;;;;;;5032972;28;20033;-82
2023/02/20 10:26:23;;;;;;;17.13;7.93;;;;;;;;;;5042653;28;20033;-82
2023/02/20 10:28:49;;;;;;;15.68;8.02;;;;;;;;;;5033485;28;20081;-82
2023/02/20 10:31:32;;;;;;;16.52;8.05;;;;;;;;;;5034038;28;20543;-81
2023/02/20 10:34:22;;;;;;;15.85;8.35;;;;;;;;;;5029060;28;20050;-83
2023/02/20 10:37:13;;;;;;;16.38;7.53;;;;;;;;;;5035595;28;20025;-83
2023/02/20 10:40:17;;;;;;;16.65;7.90;;;;;;;;;;5013949;28;20065;-82
2023/02/20 10:42:50;;;;;;;16.17;7.80;;;;;;;;;;4998482;28;20032;-83
2023/02/20 10:45:41;;;;;;;19.23;8.55;;;;;;;;;;5028191;28;20083;-82
2023/02/20 10:48:09;;;;;;;12.50;7.22;;;;;;;;;;5032403;28;20452;-83
2023/02/20 10:50:51;;;;;;;16.73;7.65;;;;;;;;;;5037347;28;20030;-82
2023/02/20 10:53:35;;;;;;;16.65;7.78;;;;;;;;;;5038152;28;20029;-79
2023/02/20 10:56:13;;;;;;;14.85;7.57;;;;;;;;;;5040815;28;20021;-79
2023/02/20 10:59:17;;;;;;;13.38;7.43;;;;;;;;;;5054393;28;20030;-80
2023/02/20 11:01:45;;;;;;;13.80;7.63;;;;;;;;;;5034306;28;20533;-80
2023/02/20 11:04:21;;;;;;;16.02;7.13;;;;;;;;;;5044115;28;20028;-82
2023/02/20 11:06:56;;;;;;;15.02;7.10;;;;;;;;;;5048743;28;20028;-83
2023/02/20 11:09:24;;;;;;;14.05;6.43;;;;;;;;;;5041943;28;20025;-82
2023/02/20 11:11:53;;;;;;;15.20;6.50;;;;;;;;;;5034187;28;20439;-83
2023/02/20 11:14:29;;;;;;;16.23;6.63;;;;;;;;;;5036027;28;20155;-83
2023/02/20 11:17:05;;;;;;;16.15;6.32;;;;;;;;;;5033369;28;20401;-82
2023/02/20 11:19:39;;;;;;;12.75;6.22;;;;;;;;;;5020874;28;20021;-83
2023/02/20 11:22:04;;;;;;;12.13;5.68;;;;;;;;;;5031955;28;20029;-82
2023/02/20 11:24:33;;;;;;;13.18;6.05;;;;;;;;;;5031970;28;20021;-82
2023/02/20 11:27:05;;;;;;;13.98;6.18;;;;;;;;;;5033058;28;20100;-80
2023/02/20 11:29:35;;;;;;;11.55;5.75;;;;;;;;;;5044231;28;20385;-82
2023/02/20 11:32:43;;;;;;;16.35;6.55;;;;;;;;;;5032683;28;20020;-83
2023/02/20 11:35:17;;;;;;;10.48;4.93;;;;;;;;;;5007940;28;20165;-82
2023/02/20 11:37:48;;;;;;;11.75;5.07;;;;;;;;;;5032572;28;20021;-83
2023/02/20 11:40:25;;;;;;;15.50;4.72;;;;;;;;;;5033022;28;20056;-83
2023/02/20 11:42:51;;;;;;;12.70;5.43;;;;;;;;;;5032645;28;20103;-82
2023/02/20 11:45:26;;;;;;;8.93;4.25;;;;;;;;;;5032755;28;20478;-82
2023/02/20 11:48:18;;;;;;;10.32;4.60;;;;;;;;;;5032758;28;20030;-83
2023/02/20 11:50:52;;;;;;;9.68;3.95;;;;;;;;;;5027744;28;20478;-82
2023/02/20 11:53:20;;;;;;;6.90;3.88;;;;;;;;;;5031921;28;20100;-80
2023/02/20 11:55:47;;;;;;;18.15;5.28;;;;;;;;;;5022543;28;20083;-82
2023/02/20 11:58:26;;;;;;;8.82;4.00;;;;;;;;;;5031302;28;20036;-82
2023/02/20 12:00:54;;;;;;;9.13;4.05;;;;;;;;;;5032952;28;20470;-82
2023/02/20 12:03:25;;;;;;;10.23;3.75;;;;;;;;;;5030912;28;20128;-83
2023/02/20 12:05:51;;;;;;;7.63;3.40;;;;;;;;;;5032986;28;20048;-82
2023/02/20 12:08:25;;;;;;;6.53;3.47;;;;;;;;;;5022378;28;20605;-82
2023/02/20 12:10:53;;;;;;;6.78;3.38;;;;;;;;;;5030112;28;20470;-82
2023/02/20 12:13:19;;;;;;;8.60;3.55;;;;;;;;;;5016730;28;20022;-83
2023/02/20 12:15:53;;;;;;;7.80;3.92;;;;;;;;;;5032775;28;20033;-80
2023/02/20 12:18:38;;;;;;;7.95;3.83;;;;;;;;;;5036162;28;20517;-82
2023/02/20 12:21:22;;;;;;;7.88;3.85;;;;;;;;;;5036469;28;20385;-83
2023/02/20 12:24:02;;;;;;;9.85;3.63;;;;;;;;;;5035405;28;20018;-83
2023/02/20 12:26:51;;;;;;;6.72;3.67;;;;;;;;;;5035437;28;20075;-84
2023/02/20 12:29:27;;;;;;;8.52;4.03;;;;;;;;;;5032870;28;20504;-83
2023/02/20 12:32:19;;;;;;;11.30;4.00;;;;;;;;;;5035464;28;20474;-83
2023/02/20 12:35:09;;;;;;;6.82;3.00;;;;;;;;;;5034908;28;20045;-83
2023/02/20 12:37:59;;;;;;;8.63;3.78;;;;;;;;;;5029820;28;20105;-83
2023/02/20 12:40:31;;;;;;;8.27;3.28;;;;;;;;;;5036201;28;20021;-83
2023/02/20 12:43:12;;;;;;;8.40;3.58;;;;;;;;;;5031813;28;20021;-83
2023/02/20 12:45:46;;;;;;;9.82;3.08;;;;;;;;;;5033839;28;20048;-83
2023/02/20 12:48:29;;;;;;;7.18;3.13;;;;;;;;;;5034775;28;20028;-82
2023/02/20 12:51:20;;;;;;;8.23;3.30;;;;;;;;;;5035904;28;20021;-80
2023/02/20 12:54:04;;;;;;;8.07;3.00;;;;;;;;;;5036471;28;20076;-83
2023/02/20 12:57:04;;;;;;;5.47;3.13;;;;;;;;;;5027230;28;20067;-83
2023/02/20 12:59:38;;;;;;;7.70;3.22;;;;;;;;;;5034957;28;20581;-83
2023/02/20 13:02:38;;;;;;;8.85;3.72;;;;;;;;;;5024544;28;20036;-82
2023/02/20 13:05:07;;;;;;;8.50;3.83;;;;;;;;;;5034969;28;20465;-83
2023/02/20 13:07:38;;;;;;;19.45;6.25;;;;;;;;;;5029989;28;20025;-82
2023/02/20 13:10:11;;;;;;;8.95;4.78;;;;;;;;;;5032839;28;20014;-83
2023/02/20 13:12:36;;;;;;;8.30;4.47;;;;;;;;;;5016712;28;20026;-82
2023/02/20 13:15:29;;;;;;;9.55;5.07;;;;;;;;;;5034817;28;20033;-82
2023/02/20 13:18:03;;;;;;;;;;;;;;;;;;5030006;28;20390;-83
2023/02/20 13:20:45;;;;;;;13.27;5.93;;;;;;;;;;5034410;28;20358;-83
2023/02/20 13:23:14;;;;;;;11.67;6.17;;;;;;;;;;5041695;28;20026;-81
2023/02/20 13:25:44;;;;;;;13.68;7.60;;;;;;;;;;5041385;28;20051;-83
2023/02/20 13:28:48;;;;;;;19.63;8.13;;;;;;;;;;5029349;28;20049;-83
2023/02/20 13:31:48;;;;;;;12.73;7.55;;;;;;;;;;5030964;28;20037;-83
2023/02/20 13:34:14;;;;;;;14.07;7.10;;;;;;;;;;5027387;28;20050;-83
2023/02/20 13:36:47;;;;;;;33.15;10.18;;;;;;;;;;5035313;28;20022;-82
2023/02/20 13:39:18;;;;;;;15.30;7.80;;;;;;;;;;5036462;28;20034;-83
2023/02/20 13:41:53;;;;;;;14.90;8.48;;;;;;;;;;5033831;28;20018;-83
2023/02/20 13:44:42;;;;;;;12.40;7.47;;;;;;;;;;5034854;28;20021;-83
2023/02/20 13:47:11;;;;;;;12.15;7.43;;;;;;;;;;5034101;28;20052;-83
2023/02/20 13:49:46;;;;;;;24.52;8.00;;;;;;;;;;5033791;28;20021;-83
2023/02/20 13:52:43;;;;;;;15.10;7.15;;;;;;;;;;5026685;28;20026;-83
2023/02/20 13:55:09;;;;;;;14.63;6.90;;;;;;;;;;5035854;28;20156;-83
2023/02/20 13:57:45;;;;;;;14.65;7.35;;;;;;;;;;5039114;28;20112;-83
2023/02/20 14:00:26;;;;;;;11.48;7.03;;;;;;;;;;5034667;28;20074;-83
2023/02/20 14:02:52;;;;;;;16.67;7.63;;;;;;;;;;5026586;28;20025;-82
2023/02/20 14:05:37;;;;;;;12.63;7.50;;;;;;;;;;5034712;28;20032;-83
2023/02/20 14:08:03;;;;;;;14.30;7.55;;;;;;;;;;5032035;28;20076;-82
2023/02/20 14:10:30;;;;;;;12.25;7.22;;;;;;;;;;5023494;28;20504;-82
2023/02/20 14:13:03;;;;;;;14.20;7.07;;;;;;;;;;5033658;28;20474;-83
2023/02/20 14:15:31;;;;;;;11.85;7.13;;;;;;;;;;5032941;28;20120;-83
2023/02/20 14:17:57;;;;;;;11.55;7.00;;;;;;;;;;5032616;28;20056;-83
2023/02/20 14:20:34;;;;;;;11.65;6.25;;;;;;;;;;5034385;28;20177;-83
2023/02/20 14:23:24;;;;;;;11.63;6.30;;;;;;;;;;5033756;28;20029;-82
2023/02/20 14:25:56;;;;;;;11.43;6.25;;;;;;;;;;5028800;28;20548;-83
2023/02/20 14:28:22;;;;;;;12.35;6.65;;;;;;;;;;5035355;28;20018;-83
2023/02/20 14:31:09;;;;;;;11.52;6.38;;;;;;;;;;5032540;28;20501;-83
2023/02/20 14:33:35;;;;;;;13.02;7.18;;;;;;;;;;5039574;28;20494;-83
2023/02/20 14:36:35;;;;;;;12.38;6.90;;;;;;;;;;5033808;28;20021;-83
2023/02/20 14:39:06;;;;;;;10.55;6.82;;;;;;;;;;5014883;28;20037;-82
2023/02/20 14:41:33;;;;;;;16.08;8.75;;;;;;;;;;5033201;28;20513;-82
2023/02/20 14:44:05;;;;;;;20.85;10.43;;;;;;;;;;5027480;28;20026;-83
2023/02/20 14:46:33;;;;;;;20.75;10.93;;;;;;;;;;5026580;28;20029;-82
2023/02/20 14:49:12;;;;;;;21.35;10.57;;;;;;;;;;5028044;28;20030;-81
2023/02/20 14:51:38;;;;;;;19.98;12.38;;;;;;;;;;5027244;28;20036;-82
2023/02/20 14:54:23;;;;;;;19.92;11.20;;;;;;;;;;5017342;28;20030;-82
2023/02/20 14:56:52;;;;;;;19.05;11.25;;;;;;;;;;5033922;28;20037;-82
2023/02/20 14:59:32;;;;;;;24.42;12.95;;;;;;;;;;5028181;28;20026;-82
2023/02/20 15:02:11;;;;;;;18.92;9.82;;;;;;;;;;5027902;28;20025;-82
2023/02/20 15:04:46;;;;;;;19.90;11.23;;;;;;;;;;5030370;28;20021;-82
2023/02/20 15:07:11;;;;;;;19.88;10.98;;;;;;;;;;5033613;28;20525;-83